Time;durP1;ratioP1;P1;durP2;ratioP2;P2;SDS_P1;SDS_P2;PMS_P1;PMS_P2;Temp;Humidity;BMP_temperature;BMP_pressure;BME280_temperature;BME280_humidity;BME280_pressure;Samples;Min_cycle;Max_cycle;Signal;HPM_P1;HPM_P2
2023/12/13 00:00:00;;;;;;;5.68;4.78;;;;;;;;;;5039870;28;20493;-63
2023/12/13 00:02:26;;;;;;;5.15;4.63;;;;;;;;;;5041894;28;20037;-63
2023/12/13 00:04:52;;;;;;;4.25;3.85;;;;;;;;;;5041922;28;20033;-62
2023/12/13 00:07:18;;;;;;;4.65;4.22;;;;;;;;;;5042703;28;20582;-63
2023/12/13 00:09:44;;;;;;;4.43;4.03;;;;;;;;;;5041709;28;20047;-62
2023/12/13 00:12:10;;;;;;;5.20;4.43;;;;;;;;;;5036131;28;20041;-62
2023/12/13 00:14:36;;;;;;;4.13;3.72;;;;;;;;;;5035879;28;20045;-62
2023/12/13 00:17:03;;;;;;;4.03;3.63;;;;;;;;;;5034063;28;20589;-63
2023/12/13 00:19:29;;;;;;;2.72;2.53;;;;;;;;;;5039279;28;20454;-62
2023/12/13 00:21:55;;;;;;;2.65;2.45;;;;;;;;;;5034708;28;20477;-63
2023/12/13 00:24:21;;;;;;;2.35;2.15;;;;;;;;;;5034964;28;20196;-62
2023/12/13 00:26:49;;;;;;;2.30;2.10;;;;;;;;;;5033912;28;20041;-62
2023/12/13 00:29:15;;;;;;;2.40;2.03;;;;;;;;;;5034531;28;20068;-62
2023/12/13 00:31:41;;;;;;;2.53;2.33;;;;;;;;;;5037617;28;20041;-62
2023/12/13 00:34:07;;;;;;;2.33;2.13;;;;;;;;;;5031633;28;20045;-63
2023/12/13 00:36:33;;;;;;;3.03;2.72;;;;;;;;;;5038783;28;20068;-63
2023/12/13 00:38:59;;;;;;;2.80;2.60;;;;;;;;;;5033340;28;20043;-63
2023/12/13 00:41:25;;;;;;;2.40;2.20;;;;;;;;;;5040000;28;20041;-62
2023/12/13 00:43:51;;;;;;;2.67;2.47;;;;;;;;;;5034121;28;20037;-62
2023/12/13 00:46:22;;;;;;;2.47;2.28;;;;;;;;;;5031210;28;20056;-63
2023/12/13 00:48:48;;;;;;;2.60;2.40;;;;;;;;;;5038886;28;20041;-63
2023/12/13 00:51:21;;;;;;;2.83;2.63;;;;;;;;;;5036238;28;20117;-63
2023/12/13 00:53:47;;;;;;;2.35;2.15;;;;;;;;;;5038695;28;20041;-63
2023/12/13 00:56:13;;;;;;;2.50;2.30;;;;;;;;;;5037410;28;20183;-62
2023/12/13 00:58:39;;;;;;;3.70;3.30;;;;;;;;;;5031835;28;20143;-62
2023/12/13 01:01:06;;;;;;;3.78;2.97;;;;;;;;;;5037926;28;20041;-62
2023/12/13 01:03:32;;;;;;;2.63;2.42;;;;;;;;;;5038258;28;20033;-62
2023/12/13 01:05:58;;;;;;;3.03;2.72;;;;;;;;;;5066894;28;20063;-63
2023/12/13 01:08:24;;;;;;;3.20;2.90;;;;;;;;;;5037051;28;20041;-63
2023/12/13 01:10:50;;;;;;;3.30;2.50;;;;;;;;;;5033631;28;20036;-63
2023/12/13 01:13:16;;;;;;;3.08;2.78;;;;;;;;;;5035731;28;20048;-63
2023/12/13 01:15:42;;;;;;;3.90;3.25;;;;;;;;;;5036388;28;20098;-62
2023/12/13 01:18:08;;;;;;;2.75;2.45;;;;;;;;;;5035830;28;20045;-63
2023/12/13 01:20:35;;;;;;;2.85;2.55;;;;;;;;;;5037292;28;20044;-63
2023/12/13 01:23:01;;;;;;;2.85;2.55;;;;;;;;;;5033762;28;20029;-63
2023/12/13 01:25:27;;;;;;;3.33;2.40;;;;;;;;;;5033886;28;20045;-63
2023/12/13 01:27:57;;;;;;;2.88;2.58;;;;;;;;;;5035088;28;20038;-62
2023/12/13 01:30:23;;;;;;;3.08;2.65;;;;;;;;;;5034588;28;20563;-62
2023/12/13 01:32:49;;;;;;;2.30;2.10;;;;;;;;;;5033322;28;20124;-62
2023/12/13 01:35:15;;;;;;;2.47;2.28;;;;;;;;;;5034113;28;20079;-62
2023/12/13 01:37:41;;;;;;;2.00;1.80;;;;;;;;;;5038005;28;20037;-62
2023/12/13 01:40:08;;;;;;;2.97;2.70;;;;;;;;;;5035913;28;20064;-62
2023/12/13 01:42:37;;;;;;;2.92;2.70;;;;;;;;;;5036048;28;20030;-62
2023/12/13 01:45:03;;;;;;;2.50;2.30;;;;;;;;;;5036584;28;20090;-62
2023/12/13 01:47:29;;;;;;;2.20;2.00;;;;;;;;;;5041571;28;20091;-63
2023/12/13 01:49:55;;;;;;;2.05;1.80;;;;;;;;;;5029667;28;20117;-62
2023/12/13 01:52:21;;;;;;;3.00;2.78;;;;;;;;;;5039850;28;20041;-63
2023/12/13 01:54:48;;;;;;;2.72;2.38;;;;;;;;;;5030697;28;20049;-63
2023/12/13 01:57:14;;;;;;;2.42;2.13;;;;;;;;;;5024593;28;20033;-62
2023/12/13 01:59:41;;;;;;;2.70;2.50;;;;;;;;;;5025837;28;20565;-63
2023/12/13 02:02:08;;;;;;;2.15;1.80;;;;;;;;;;5025482;28;20037;-63
2023/12/13 02:04:37;;;;;;;2.40;1.90;;;;;;;;;;5024967;28;20041;-63
2023/12/13 02:07:03;;;;;;;1.80;1.60;;;;;;;;;;5031200;28;20048;-63
2023/12/13 02:09:29;;;;;;;2.15;1.95;;;;;;;;;;5032759;28;20038;-63
2023/12/13 02:11:55;;;;;;;1.70;1.60;;;;;;;;;;5034449;28;20106;-63
2023/12/13 02:14:21;;;;;;;2.33;2.10;;;;;;;;;;5034515;28;20097;-62
2023/12/13 02:16:47;;;;;;;2.15;1.92;;;;;;;;;;5033386;28;20409;-63
2023/12/13 02:19:13;;;;;;;2.22;2.03;;;;;;;;;;5035544;28;20044;-63
2023/12/13 02:21:39;;;;;;;2.40;2.03;;;;;;;;;;5039278;28;20033;-63
2023/12/13 02:24:07;;;;;;;2.15;1.80;;;;;;;;;;5036756;28;20044;-63
2023/12/13 02:26:37;;;;;;;2.55;2.30;;;;;;;;;;5035673;28;20053;-63
2023/12/13 02:29:03;;;;;;;2.00;1.80;;;;;;;;;;5034141;28;20040;-63
2023/12/13 02:31:30;;;;;;;2.50;2.30;;;;;;;;;;5041193;28;20041;-63
2023/12/13 02:33:56;;;;;;;2.05;1.85;;;;;;;;;;5034543;28;20120;-63
2023/12/13 02:36:22;;;;;;;1.60;1.50;;;;;;;;;;5038660;28;20052;-63
2023/12/13 02:38:48;;;;;;;2.75;2.33;;;;;;;;;;5032471;28;20037;-63
2023/12/13 02:41:14;;;;;;;3.05;2.40;;;;;;;;;;5031888;28;20501;-63
2023/12/13 02:43:40;;;;;;;3.08;2.47;;;;;;;;;;5034061;28;20033;-63
2023/12/13 02:46:06;;;;;;;1.98;1.85;;;;;;;;;;5037310;28;20440;-63
2023/12/13 02:48:32;;;;;;;2.88;2.65;;;;;;;;;;5039519;28;20037;-62
2023/12/13 02:50:58;;;;;;;3.30;3.00;;;;;;;;;;5037077;28;20527;-62
2023/12/13 02:53:24;;;;;;;3.30;2.65;;;;;;;;;;5031069;28;20046;-62
2023/12/13 02:55:50;;;;;;;2.63;2.38;;;;;;;;;;5030378;28;20459;-62
2023/12/13 02:58:17;;;;;;;2.53;2.33;;;;;;;;;;5036442;28;20048;-62
2023/12/13 03:00:43;;;;;;;2.70;2.50;;;;;;;;;;5038017;28;20045;-62
2023/12/13 03:03:08;;;;;;;2.67;2.40;;;;;;;;;;5036195;28;20090;-63
2023/12/13 03:05:34;;;;;;;2.20;2.00;;;;;;;;;;5035893;28;20685;-63
2023/12/13 03:08:00;;;;;;;3.40;2.45;;;;;;;;;;5036903;28;20034;-62
2023/12/13 03:10:27;;;;;;;2.42;2.10;;;;;;;;;;5042725;28;20091;-62
2023/12/13 03:12:54;;;;;;;2.03;1.83;;;;;;;;;;5041145;28;20052;-62
2023/12/13 03:15:20;;;;;;;2.50;2.30;;;;;;;;;;5037464;28;20917;-62
2023/12/13 03:17:45;;;;;;;2.40;2.20;;;;;;;;;;5037188;28;20132;-62
2023/12/13 03:20:12;;;;;;;2.38;2.17;;;;;;;;;;5038985;28;20040;-62
2023/12/13 03:22:38;;;;;;;2.63;2.40;;;;;;;;;;5036249;28;20041;-62
2023/12/13 03:25:04;;;;;;;4.05;3.65;;;;;;;;;;5035667;28;20049;-62
2023/12/13 03:27:30;;;;;;;3.63;3.20;;;;;;;;;;5036307;28;20045;-62
2023/12/13 03:29:56;;;;;;;4.03;3.10;;;;;;;;;;5038143;28;20097;-62
2023/12/13 03:32:22;;;;;;;3.63;3.30;;;;;;;;;;5034307;28;20129;-62
2023/12/13 03:34:48;;;;;;;3.10;2.78;;;;;;;;;;5033210;28;20511;-62
2023/12/13 03:37:15;;;;;;;2.28;2.08;;;;;;;;;;5031010;28;20041;-62
2023/12/13 03:39:41;;;;;;;3.30;2.55;;;;;;;;;;5031877;28;20076;-62
2023/12/13 03:42:07;;;;;;;3.40;3.03;;;;;;;;;;5035143;28;20045;-63
2023/12/13 03:44:33;;;;;;;2.55;2.33;;;;;;;;;;5043261;28;20037;-62
2023/12/13 03:46:59;;;;;;;3.38;3.08;;;;;;;;;;5041997;28;20532;-63
2023/12/13 03:49:25;;;;;;;2.97;2.53;;;;;;;;;;5036204;28;20045;-63
2023/12/13 03:51:51;;;;;;;4.40;3.42;;;;;;;;;;5042552;28;20766;-62
2023/12/13 03:54:17;;;;;;;4.25;3.22;;;;;;;;;;5042643;28;20064;-62
2023/12/13 03:56:43;;;;;;;3.70;2.70;;;;;;;;;;5038695;28;20086;-62
2023/12/13 03:59:09;;;;;;;3.65;3.17;;;;;;;;;;5036962;28;20037;-62
2023/12/13 04:01:35;;;;;;;3.33;2.72;;;;;;;;;;5039017;28;20044;-62
2023/12/13 04:04:02;;;;;;;3.03;2.72;;;;;;;;;;5038123;28;20044;-62
2023/12/13 04:06:28;;;;;;;2.95;2.53;;;;;;;;;;5039551;28;20621;-63
2023/12/13 04:08:55;;;;;;;3.47;2.28;;;;;;;;;;5036770;28;20385;-63
2023/12/13 04:11:21;;;;;;;3.97;3.58;;;;;;;;;;5040792;28;20041;-63
2023/12/13 04:13:47;;;;;;;3.97;3.53;;;;;;;;;;5040328;28;20044;-63
2023/12/13 04:16:13;;;;;;;4.18;3.78;;;;;;;;;;5040852;28;20044;-63
2023/12/13 04:18:39;;;;;;;4.40;3.47;;;;;;;;;;5035913;28;20371;-63
2023/12/13 04:21:05;;;;;;;3.67;3.22;;;;;;;;;;5059499;28;20051;-63
2023/12/13 04:23:31;;;;;;;3.88;3.47;;;;;;;;;;5039193;28;20583;-63
2023/12/13 04:25:57;;;;;;;4.20;3.40;;;;;;;;;;5034657;28;20663;-63
2023/12/13 04:28:23;;;;;;;4.55;3.58;;;;;;;;;;5037745;28;20037;-63
2023/12/13 04:30:49;;;;;;;3.58;3.28;;;;;;;;;;5037045;28;20052;-63
2023/12/13 04:33:19;;;;;;;2.70;2.50;;;;;;;;;;5039346;28;20045;-62
2023/12/13 04:35:45;;;;;;;3.60;3.30;;;;;;;;;;5038158;28;20048;-62
2023/12/13 04:38:11;;;;;;;5.22;4.18;;;;;;;;;;5036933;28;20045;-63
2023/12/13 04:40:37;;;;;;;4.55;3.83;;;;;;;;;;5041108;28;20587;-63
2023/12/13 04:43:03;;;;;;;3.10;2.72;;;;;;;;;;5039036;28;20050;-62
2023/12/13 04:45:29;;;;;;;3.65;2.83;;;;;;;;;;5036955;28;20072;-63
2023/12/13 04:47:55;;;;;;;3.00;2.80;;;;;;;;;;5041541;28;20124;-63
2023/12/13 04:50:22;;;;;;;4.90;3.38;;;;;;;;;;5040293;28;20151;-62
2023/12/13 04:52:49;;;;;;;2.50;2.30;;;;;;;;;;5037895;28;20048;-62
2023/12/13 04:55:15;;;;;;;3.88;2.50;;;;;;;;;;5040296;28;20041;-62
2023/12/13 04:57:41;;;;;;;2.60;2.38;;;;;;;;;;5041598;28;20045;-62
2023/12/13 05:00:07;;;;;;;3.20;2.90;;;;;;;;;;5037718;28;20040;-62
2023/12/13 05:02:34;;;;;;;2.53;2.33;;;;;;;;;;5040154;28;20056;-62
2023/12/13 05:05:00;;;;;;;2.67;2.47;;;;;;;;;;5040776;28;20112;-62
2023/12/13 05:07:27;;;;;;;3.15;2.63;;;;;;;;;;5038377;28;20052;-62
2023/12/13 05:09:55;;;;;;;3.45;3.15;;;;;;;;;;5038801;28;20044;-62
2023/12/13 05:12:21;;;;;;;3.40;2.85;;;;;;;;;;5033040;28;20803;-62
2023/12/13 05:14:47;;;;;;;3.58;3.25;;;;;;;;;;5040006;28;20044;-62
2023/12/13 05:17:13;;;;;;;3.22;2.80;;;;;;;;;;5038827;28;20072;-62
2023/12/13 05:19:39;;;;;;;2.67;2.47;;;;;;;;;;5040922;28;20048;-63
2023/12/13 05:22:06;;;;;;;2.67;2.47;;;;;;;;;;5038933;28;20049;-63
2023/12/13 05:24:32;;;;;;;2.60;2.28;;;;;;;;;;5040635;28;20051;-63
2023/12/13 05:26:58;;;;;;;2.33;2.13;;;;;;;;;;5039132;28;20045;-62
2023/12/13 05:29:24;;;;;;;2.22;2.03;;;;;;;;;;5037383;28;20041;-62
2023/12/13 05:31:50;;;;;;;2.47;1.77;;;;;;;;;;5039409;28;20044;-63
2023/12/13 05:34:16;;;;;;;2.22;2.03;;;;;;;;;;5041238;28;20075;-63
2023/12/13 05:36:42;;;;;;;2.00;1.80;;;;;;;;;;5036687;28;20094;-63
2023/12/13 05:39:08;;;;;;;1.70;1.58;;;;;;;;;;5036669;28;20475;-63
2023/12/13 05:41:34;;;;;;;2.15;1.70;;;;;;;;;;5038027;28;20044;-62
2023/12/13 05:44:00;;;;;;;1.75;1.60;;;;;;;;;;5040611;28;20036;-62
2023/12/13 05:46:26;;;;;;;2.40;2.20;;;;;;;;;;5037954;28;20057;-63
2023/12/13 05:48:53;;;;;;;1.80;1.70;;;;;;;;;;5043313;28;20037;-62
2023/12/13 05:51:19;;;;;;;1.52;1.33;;;;;;;;;;5037769;28;20041;-62
2023/12/13 05:53:45;;;;;;;1.67;1.58;;;;;;;;;;5039936;28;20492;-62
2023/12/13 05:56:11;;;;;;;1.67;1.58;;;;;;;;;;5037978;28;20072;-63
2023/12/13 05:58:37;;;;;;;1.65;1.55;;;;;;;;;;5036139;28;20041;-62
2023/12/13 06:01:03;;;;;;;1.70;1.60;;;;;;;;;;5039925;28;20144;-63
2023/12/13 06:03:30;;;;;;;2.00;1.75;;;;;;;;;;5039465;28;20046;-63
2023/12/13 06:05:56;;;;;;;1.77;1.67;;;;;;;;;;5037299;28;20678;-63
2023/12/13 06:08:22;;;;;;;1.42;1.33;;;;;;;;;;5038360;28;20484;-62
2023/12/13 06:10:48;;;;;;;1.33;1.23;;;;;;;;;;5035520;28;20037;-63
2023/12/13 06:13:17;;;;;;;1.35;1.25;;;;;;;;;;5036676;28;20486;-63
2023/12/13 06:15:44;;;;;;;0.80;0.80;;;;;;;;;;5038236;28;20045;-63
2023/12/13 06:18:10;;;;;;;1.50;1.20;;;;;;;;;;5039547;28;20055;-63
2023/12/13 06:20:36;;;;;;;1.10;1.00;;;;;;;;;;5040869;28;20033;-62
2023/12/13 06:23:02;;;;;;;2.00;1.80;;;;;;;;;;5034130;28;20045;-62
2023/12/13 06:25:28;;;;;;;1.65;1.40;;;;;;;;;;5038465;28;20044;-62
2023/12/13 06:27:54;;;;;;;1.13;1.02;;;;;;;;;;5033183;28;20041;-62
2023/12/13 06:30:21;;;;;;;1.20;1.10;;;;;;;;;;5038281;28;20489;-63
2023/12/13 06:32:47;;;;;;;1.60;1.45;;;;;;;;;;5034615;28;20029;-63
2023/12/13 06:35:14;;;;;;;1.55;1.45;;;;;;;;;;5035263;28;20042;-63
2023/12/13 06:37:40;;;;;;;2.75;1.63;;;;;;;;;;5035422;28;20037;-63
2023/12/13 06:40:07;;;;;;;1.90;1.75;;;;;;;;;;5038396;28;20055;-63
2023/12/13 06:42:33;;;;;;;1.73;1.63;;;;;;;;;;5037887;28;20037;-63
2023/12/13 06:44:59;;;;;;;2.15;1.52;;;;;;;;;;5036976;28;20433;-63
2023/12/13 06:47:25;;;;;;;1.48;1.38;;;;;;;;;;5040600;28;20041;-63
2023/12/13 06:49:51;;;;;;;2.10;1.77;;;;;;;;;;5037560;28;20044;-63
2023/12/13 06:52:17;;;;;;;2.17;1.98;;;;;;;;;;5039185;28;20095;-63
2023/12/13 06:54:43;;;;;;;1.80;1.70;;;;;;;;;;5036316;28;20040;-62
2023/12/13 06:57:09;;;;;;;2.35;2.15;;;;;;;;;;5038067;28;20049;-63
2023/12/13 06:59:35;;;;;;;1.95;1.77;;;;;;;;;;5040281;28;20576;-62
2023/12/13 07:02:01;;;;;;;2.15;1.95;;;;;;;;;;5036827;28;20516;-63
2023/12/13 07:04:27;;;;;;;2.03;1.83;;;;;;;;;;5036016;28;20098;-63
2023/12/13 07:06:54;;;;;;;2.20;2.00;;;;;;;;;;5037699;28;20120;-63
2023/12/13 07:09:20;;;;;;;1.83;1.73;;;;;;;;;;5039397;28;20049;-63
2023/12/13 07:11:46;;;;;;;2.35;2.17;;;;;;;;;;5040401;28;20441;-62
2023/12/13 07:14:16;;;;;;;2.25;2.05;;;;;;;;;;5036139;28;20045;-62
2023/12/13 07:16:45;;;;;;;2.28;2.08;;;;;;;;;;5033768;28;20041;-62
2023/12/13 07:19:11;;;;;;;1.90;1.80;;;;;;;;;;5039226;28;20045;-62
2023/12/13 07:21:38;;;;;;;1.83;1.73;;;;;;;;;;5041151;28;20106;-62
2023/12/13 07:24:04;;;;;;;1.80;1.70;;;;;;;;;;5036798;28;20045;-62
2023/12/13 07:26:30;;;;;;;1.92;1.75;;;;;;;;;;5035540;28;20052;-62
2023/12/13 07:28:56;;;;;;;2.00;1.80;;;;;;;;;;5041615;28;20037;-62
2023/12/13 07:31:23;;;;;;;2.00;1.77;;;;;;;;;;5041190;28;20370;-62
2023/12/13 07:33:49;;;;;;;2.58;2.38;;;;;;;;;;5038644;28;20544;-62
2023/12/13 07:36:15;;;;;;;2.55;2.35;;;;;;;;;;5038830;28;20393;-62
2023/12/13 07:38:41;;;;;;;2.65;2.45;;;;;;;;;;5040814;28;20052;-63
2023/12/13 07:41:08;;;;;;;2.85;2.65;;;;;;;;;;5039541;28;20119;-63
2023/12/13 07:43:34;;;;;;;2.22;2.03;;;;;;;;;;5042037;28;20063;-63
2023/12/13 07:46:00;;;;;;;2.60;2.40;;;;;;;;;;5041237;28;20068;-62
2023/12/13 07:48:26;;;;;;;2.80;2.58;;;;;;;;;;5038519;28;20044;-62
2023/12/13 07:50:53;;;;;;;3.88;2.53;;;;;;;;;;5035424;28;20076;-62
2023/12/13 07:53:19;;;;;;;2.20;2.00;;;;;;;;;;5038206;28;20187;-62
2023/12/13 07:55:46;;;;;;;2.30;2.10;;;;;;;;;;5039432;28;20037;-62
2023/12/13 07:58:12;;;;;;;2.05;1.90;;;;;;;;;;5034553;28;20135;-62
2023/12/13 08:00:38;;;;;;;1.98;1.75;;;;;;;;;;5044613;28;20103;-62
2023/12/13 08:03:04;;;;;;;1.48;1.38;;;;;;;;;;5036162;28;20100;-62
2023/12/13 08:05:30;;;;;;;1.73;1.63;;;;;;;;;;5046179;28;20101;-62
2023/12/13 08:07:56;;;;;;;1.98;1.77;;;;;;;;;;5042501;28;20045;-63
2023/12/13 08:10:22;;;;;;;1.52;1.42;;;;;;;;;;5042175;28;20029;-63
2023/12/13 08:12:48;;;;;;;1.42;1.33;;;;;;;;;;5045512;28;20037;-63
2023/12/13 08:15:14;;;;;;;2.30;2.10;;;;;;;;;;5037464;28;20534;-62
2023/12/13 08:17:40;;;;;;;1.27;1.17;;;;;;;;;;5041810;28;20045;-63
2023/12/13 08:20:06;;;;;;;1.80;1.70;;;;;;;;;;5041951;28;20047;-62
2023/12/13 08:22:33;;;;;;;2.42;2.25;;;;;;;;;;5072323;28;20052;-63
2023/12/13 08:24:59;;;;;;;2.33;2.03;;;;;;;;;;5035168;28;20025;-62
2023/12/13 08:27:25;;;;;;;2.88;2.63;;;;;;;;;;5039949;28;20512;-62
2023/12/13 08:29:51;;;;;;;2.72;2.40;;;;;;;;;;5041842;28;20044;-62
2023/12/13 08:32:17;;;;;;;3.08;2.83;;;;;;;;;;5036898;28;20339;-62
2023/12/13 08:34:44;;;;;;;3.65;3.35;;;;;;;;;;5039756;28;20034;-62
2023/12/13 08:37:10;;;;;;;4.55;4.15;;;;;;;;;;5041716;28;20045;-61
2023/12/13 08:39:36;;;;;;;3.92;3.53;;;;;;;;;;5043791;28;20702;-57
2023/12/13 08:42:03;;;;;;;4.00;3.60;;;;;;;;;;5047597;28;20576;-64
2023/12/13 08:44:29;;;;;;;4.40;3.97;;;;;;;;;;5034373;28;20481;-58
2023/12/13 08:46:56;;;;;;;4.38;3.60;;;;;;;;;;5046795;28;20088;-61
2023/12/13 08:49:22;;;;;;;4.25;3.88;;;;;;;;;;5045170;28;20041;-61
2023/12/13 08:51:48;;;;;;;4.25;3.85;;;;;;;;;;5045004;28;20049;-61
2023/12/13 08:54:14;;;;;;;5.13;4.57;;;;;;;;;;5045974;28;20393;-61
2023/12/13 08:56:40;;;;;;;6.78;6.03;;;;;;;;;;5045182;28;20037;-62
2023/12/13 08:59:06;;;;;;;5.68;5.07;;;;;;;;;;5038228;28;20045;-61
2023/12/13 09:01:32;;;;;;;6.13;5.35;;;;;;;;;;5041048;28;20040;-61
2023/12/13 09:03:59;;;;;;;6.25;5.57;;;;;;;;;;5047455;28;20092;-62
2023/12/13 09:06:25;;;;;;;6.93;6.22;;;;;;;;;;5046075;28;20045;-61
2023/12/13 09:08:51;;;;;;;7.70;6.90;;;;;;;;;;5042953;28;20041;-61
2023/12/13 09:11:18;;;;;;;8.10;6.40;;;;;;;;;;5039792;28;20053;-61
2023/12/13 09:13:44;;;;;;;8.27;7.20;;;;;;;;;;5033494;28;20497;-61
2023/12/13 09:16:10;;;;;;;8.02;6.88;;;;;;;;;;5046114;28;20547;-61
2023/12/13 09:18:36;;;;;;;8.02;7.20;;;;;;;;;;5046765;28;20047;-61
2023/12/13 09:21:03;;;;;;;9.55;7.10;;;;;;;;;;5037997;28;20033;-61
2023/12/13 09:23:29;;;;;;;7.28;6.57;;;;;;;;;;5043955;28;20053;-62
2023/12/13 09:25:58;;;;;;;6.28;5.68;;;;;;;;;;5036970;28;20048;-61
2023/12/13 09:28:24;;;;;;;6.68;6.05;;;;;;;;;;5041167;28;20052;-62
2023/12/13 09:30:50;;;;;;;7.10;6.40;;;;;;;;;;5031076;28;21044;-61
2023/12/13 09:33:16;;;;;;;7.70;6.78;;;;;;;;;;5042402;28;20150;-61
2023/12/13 09:35:42;;;;;;;8.77;6.90;;;;;;;;;;5040378;28;20474;-61
2023/12/13 09:38:08;;;;;;;7.60;6.60;;;;;;;;;;5040574;28;20041;-62
2023/12/13 09:40:34;;;;;;;6.80;6.10;;;;;;;;;;5041533;28;20039;-61
2023/12/13 09:43:01;;;;;;;5.97;5.30;;;;;;;;;;5041117;28;20327;-62
2023/12/13 09:45:27;;;;;;;7.57;6.82;;;;;;;;;;5042284;28;20057;-62
2023/12/13 09:47:53;;;;;;;6.68;6.00;;;;;;;;;;5044099;28;20049;-62
2023/12/13 09:50:21;;;;;;;5.50;4.95;;;;;;;;;;5042901;28;20049;-62
2023/12/13 09:52:47;;;;;;;5.40;4.90;;;;;;;;;;5038874;28;20048;-62
2023/12/13 09:55:15;;;;;;;7.95;5.53;;;;;;;;;;5044404;28;20041;-63
2023/12/13 09:57:41;;;;;;;5.85;5.25;;;;;;;;;;5044467;28;20037;-61
2023/12/13 10:00:07;;;;;;;5.90;5.30;;;;;;;;;;5044331;28;20049;-61
2023/12/13 10:02:34;;;;;;;4.97;4.47;;;;;;;;;;5045431;28;20044;-61
2023/12/13 10:05:00;;;;;;;5.95;5.18;;;;;;;;;;5046217;28;20033;-61
2023/12/13 10:07:29;;;;;;;5.70;5.20;;;;;;;;;;5044973;28;20052;-61
2023/12/13 10:09:56;;;;;;;4.75;4.35;;;;;;;;;;5045427;28;20702;-61
2023/12/13 10:12:22;;;;;;;5.70;5.00;;;;;;;;;;5045352;28;20512;-61
2023/12/13 10:14:48;;;;;;;6.22;5.22;;;;;;;;;;5045008;28;20431;-61
2023/12/13 10:17:14;;;;;;;4.82;4.22;;;;;;;;;;5044689;28;20053;-61
2023/12/13 10:19:40;;;;;;;5.13;4.63;;;;;;;;;;5044934;28;20072;-61
2023/12/13 10:22:07;;;;;;;5.35;4.85;;;;;;;;;;5044895;28;20036;-61
2023/12/13 10:24:33;;;;;;;5.50;4.70;;;;;;;;;;5043759;28;20095;-61
2023/12/13 10:26:59;;;;;;;4.85;4.45;;;;;;;;;;5045397;28;20037;-60
2023/12/13 10:29:25;;;;;;;5.03;4.40;;;;;;;;;;5043849;28;20086;-60
2023/12/13 10:31:51;;;;;;;5.93;4.93;;;;;;;;;;5042392;28;20037;-60
2023/12/13 10:34:17;;;;;;;6.13;5.55;;;;;;;;;;5041352;28;20535;-60
2023/12/13 10:36:43;;;;;;;6.28;5.65;;;;;;;;;;5044884;28;20037;-61
2023/12/13 10:39:13;;;;;;;5.35;4.85;;;;;;;;;;5042848;28;20070;-61
2023/12/13 10:41:39;;;;;;;8.50;6.82;;;;;;;;;;5044392;28;20061;-60
2023/12/13 10:44:07;;;;;;;10.30;7.20;;;;;;;;;;5036399;28;20633;-61
2023/12/13 10:46:35;;;;;;;7.15;5.95;;;;;;;;;;5028834;28;20183;-61
2023/12/13 10:49:03;;;;;;;6.28;5.68;;;;;;;;;;5039676;28;20052;-61
2023/12/13 10:51:31;;;;;;;7.07;5.75;;;;;;;;;;5038827;28;20412;-61
2023/12/13 10:53:58;;;;;;;6.15;5.55;;;;;;;;;;5043081;28;20102;-61
2023/12/13 10:56:24;;;;;;;5.53;4.90;;;;;;;;;;5044689;28;20804;-60
2023/12/13 10:58:51;;;;;;;5.72;4.90;;;;;;;;;;5042320;28;20045;-61
2023/12/13 11:01:18;;;;;;;4.85;4.45;;;;;;;;;;5043660;28;20172;-61
2023/12/13 11:03:52;;;;;;;7.13;5.80;;;;;;;;;;5045082;28;20040;-61
2023/12/13 11:06:18;;;;;;;7.82;6.75;;;;;;;;;;5045012;28;20060;-61
2023/12/13 11:08:45;;;;;;;6.97;6.28;;;;;;;;;;5045539;28;20167;-60
2023/12/13 11:11:13;;;;;;;9.43;7.15;;;;;;;;;;5044414;28;20033;-61
2023/12/13 11:13:46;;;;;;;7.65;6.78;;;;;;;;;;5043867;28;20109;-61
2023/12/13 11:16:20;;;;;;;7.78;6.97;;;;;;;;;;5044251;28;20045;-61
2023/12/13 11:18:46;;;;;;;7.72;6.70;;;;;;;;;;5044421;28;20045;-60
2023/12/13 11:21:21;;;;;;;7.25;5.85;;;;;;;;;;5043658;28;20047;-60
2023/12/13 11:23:48;;;;;;;7.68;5.78;;;;;;;;;;5044300;28;20116;-60
2023/12/13 11:26:15;;;;;;;6.80;6.07;;;;;;;;;;5043529;28;20072;-60
2023/12/13 11:28:48;;;;;;;11.13;7.78;;;;;;;;;;5044621;28;20075;-60
2023/12/13 11:31:18;;;;;;;6.65;5.95;;;;;;;;;;5044881;28;20044;-61
2023/12/13 11:33:44;;;;;;;6.07;5.47;;;;;;;;;;5043356;28;20408;-61
2023/12/13 11:36:11;;;;;;;7.63;6.20;;;;;;;;;;5044172;28;20041;-61
2023/12/13 11:38:37;;;;;;;6.95;5.60;;;;;;;;;;5045008;28;20090;-61
2023/12/13 11:41:03;;;;;;;7.05;5.72;;;;;;;;;;5044780;28;20080;-61
2023/12/13 11:43:30;;;;;;;7.00;5.53;;;;;;;;;;5044201;28;20037;-61
2023/12/13 11:45:56;;;;;;;15.70;7.95;;;;;;;;;;5044674;28;20049;-61
2023/12/13 11:48:22;;;;;;;9.18;7.45;;;;;;;;;;5044443;28;20064;-60
2023/12/13 11:50:50;;;;;;;8.45;7.45;;;;;;;;;;5043242;28;20099;-60
2023/12/13 11:53:16;;;;;;;9.70;7.35;;;;;;;;;;5042415;28;20136;-60
2023/12/13 11:55:43;;;;;;;9.23;7.25;;;;;;;;;;5039917;28;20119;-61
2023/12/13 11:58:09;;;;;;;11.35;8.95;;;;;;;;;;5044365;28;20450;-61
2023/12/13 12:00:35;;;;;;;12.35;9.98;;;;;;;;;;5041747;28;20037;-61
2023/12/13 12:03:01;;;;;;;15.73;11.50;;;;;;;;;;5033975;28;20496;-61
2023/12/13 12:05:28;;;;;;;18.58;12.55;;;;;;;;;;5045477;28;20048;-61
2023/12/13 12:07:58;;;;;;;14.80;11.70;;;;;;;;;;5048423;28;20033;-61
2023/12/13 12:10:24;;;;;;;13.40;10.05;;;;;;;;;;5047830;28;20107;-61
2023/12/13 12:12:50;;;;;;;13.00;10.45;;;;;;;;;;5047976;28;20049;-61
2023/12/13 12:15:16;;;;;;;14.13;11.27;;;;;;;;;;5048098;28;20436;-61
2023/12/13 12:17:42;;;;;;;14.10;10.23;;;;;;;;;;5046246;28;20091;-61
2023/12/13 12:20:08;;;;;;;17.70;13.07;;;;;;;;;;5047770;28;20045;-61
2023/12/13 12:22:38;;;;;;;15.77;12.63;;;;;;;;;;5048179;28;20084;-61
2023/12/13 12:25:05;;;;;;;16.80;12.05;;;;;;;;;;5047597;28;20075;-62
2023/12/13 12:27:31;;;;;;;13.45;10.52;;;;;;;;;;5048573;28;20136;-61
2023/12/13 12:29:57;;;;;;;15.02;10.98;;;;;;;;;;5048057;28;20037;-60
2023/12/13 12:32:23;;;;;;;12.35;9.77;;;;;;;;;;5047296;28;20104;-61
2023/12/13 12:34:49;;;;;;;11.75;9.13;;;;;;;;;;5047803;28;20119;-61
2023/12/13 12:37:16;;;;;;;10.45;8.90;;;;;;;;;;5044537;28;20228;-60
2023/12/13 12:39:42;;;;;;;12.02;8.77;;;;;;;;;;5047232;28;20541;-61
2023/12/13 12:42:08;;;;;;;7.65;6.68;;;;;;;;;;5046092;28;20048;-61
2023/12/13 12:44:34;;;;;;;10.32;8.15;;;;;;;;;;5041762;28;20140;-61
2023/12/13 12:47:00;;;;;;;9.25;7.63;;;;;;;;;;5046147;28;20048;-61
2023/12/13 12:49:26;;;;;;;7.45;6.10;;;;;;;;;;5044145;28;20049;-61
2023/12/13 12:51:52;;;;;;;7.68;6.15;;;;;;;;;;5043197;28;20736;-61
2023/12/13 12:54:18;;;;;;;8.80;6.88;;;;;;;;;;5044610;28;20037;-61
2023/12/13 12:56:44;;;;;;;6.75;6.10;;;;;;;;;;5046051;28;20082;-61
2023/12/13 12:59:14;;;;;;;6.05;5.32;;;;;;;;;;5038058;28;20045;-61
2023/12/13 13:01:42;;;;;;;5.20;4.03;;;;;;;;;;5043849;28;20079;-61
2023/12/13 13:04:12;;;;;;;5.50;4.65;;;;;;;;;;5038821;28;20044;-61
2023/12/13 13:06:38;;;;;;;4.97;4.30;;;;;;;;;;5037931;28;20416;-61
2023/12/13 13:09:06;;;;;;;6.20;4.68;;;;;;;;;;5041873;28;20102;-61
2023/12/13 13:11:32;;;;;;;6.85;5.43;;;;;;;;;;5041023;28;20582;-61
2023/12/13 13:13:58;;;;;;;5.68;3.80;;;;;;;;;;5040390;28;20515;-61
2023/12/13 13:16:24;;;;;;;4.30;3.35;;;;;;;;;;5039415;28;20049;-60
2023/12/13 13:18:51;;;;;;;4.68;3.90;;;;;;;;;;5044568;28;20095;-61
2023/12/13 13:21:17;;;;;;;5.15;4.20;;;;;;;;;;5040736;28;20127;-61
2023/12/13 13:23:43;;;;;;;5.13;3.95;;;;;;;;;;5042974;28;20116;-61
2023/12/13 13:26:10;;;;;;;4.15;3.75;;;;;;;;;;5036729;28;20132;-61
2023/12/13 13:28:36;;;;;;;5.32;4.43;;;;;;;;;;5042579;28;20086;-61
2023/12/13 13:31:04;;;;;;;3.45;3.15;;;;;;;;;;5043920;28;20083;-61
2023/12/13 13:33:30;;;;;;;3.10;2.80;;;;;;;;;;5040405;28;20413;-61
2023/12/13 13:35:56;;;;;;;3.45;3.10;;;;;;;;;;5042572;28;20135;-61
2023/12/13 13:38:23;;;;;;;3.50;2.60;;;;;;;;;;5036394;28;20155;-61
2023/12/13 13:40:49;;;;;;;3.22;2.85;;;;;;;;;;5042340;28;20098;-60
2023/12/13 13:43:15;;;;;;;3.08;2.72;;;;;;;;;;5041931;28;20041;-60
2023/12/13 13:45:41;;;;;;;3.63;2.97;;;;;;;;;;5041876;28;20497;-61
2023/12/13 13:48:07;;;;;;;3.97;3.15;;;;;;;;;;5038209;28;20761;-61
2023/12/13 13:50:33;;;;;;;3.20;2.65;;;;;;;;;;5042534;28;20041;-61
2023/12/13 13:53:00;;;;;;;4.50;3.28;;;;;;;;;;5043792;28;20285;-61
2023/12/13 13:55:26;;;;;;;3.28;2.97;;;;;;;;;;5028646;28;20192;-61
2023/12/13 13:57:52;;;;;;;4.10;2.95;;;;;;;;;;5042299;28;20072;-61
2023/12/13 14:00:20;;;;;;;4.03;2.78;;;;;;;;;;5042230;28;20037;-61
2023/12/13 14:02:46;;;;;;;3.15;2.83;;;;;;;;;;5036133;28;20052;-61
2023/12/13 14:05:13;;;;;;;3.22;2.95;;;;;;;;;;5037316;28;20060;-60
2023/12/13 14:07:39;;;;;;;2.95;2.65;;;;;;;;;;5038906;28;20037;-61
2023/12/13 14:10:05;;;;;;;3.90;2.55;;;;;;;;;;5037911;28;20044;-61
2023/12/13 14:12:31;;;;;;;2.58;2.38;;;;;;;;;;5041217;28;20481;-60
2023/12/13 14:14:57;;;;;;;3.05;1.92;;;;;;;;;;5039756;28;20037;-60
2023/12/13 14:17:28;;;;;;;2.53;2.28;;;;;;;;;;5040891;28;20123;-60
2023/12/13 14:19:54;;;;;;;2.40;2.20;;;;;;;;;;5037987;28;20049;-60
2023/12/13 14:22:20;;;;;;;2.60;2.38;;;;;;;;;;5042442;28;20037;-60
2023/12/13 14:24:46;;;;;;;2.92;2.72;;;;;;;;;;5035269;28;20040;-60
2023/12/13 14:27:13;;;;;;;3.33;3.03;;;;;;;;;;5043464;28;20409;-60
2023/12/13 14:29:39;;;;;;;3.20;2.90;;;;;;;;;;5034942;28;20064;-60
2023/12/13 14:32:05;;;;;;;3.05;2.83;;;;;;;;;;5039288;28;20051;-60
2023/12/13 14:34:31;;;;;;;3.03;2.72;;;;;;;;;;5038390;28;20060;-60